sensor_id;sensor_type;location;lat;lon;timestamp;pressure;altitude;pressure_sealevel;temperature;humidity
67397;BME280;57728;50.448;18.824;2023-12-07T00:01:38;97802.75;;;-0.08;68.31
67397;BME280;57728;50.448;18.824;2023-12-07T00:03:40;97779.00;;;-0.19;68.20
67397;BME280;57728;50.448;18.824;2023-12-07T00:05:41;97777.31;;;-0.20;68.21
67397;BME280;57728;50.448;18.824;2023-12-07T00:07:42;97789.88;;;-0.12;68.11
67397;BME280;57728;50.448;18.824;2023-12-07T00:09:44;97776.84;;;-0.24;68.00
67397;BME280;57728;50.448;18.824;2023-12-07T00:11:45;97817.28;;;-0.02;68.04
67397;BME280;57728;50.448;18.824;2023-12-07T00:13:47;97782.66;;;-0.20;68.25
67397;BME280;57728;50.448;18.824;2023-12-07T00:15:49;97773.66;;;-0.27;68.48
67397;BME280;57728;50.448;18.824;2023-12-07T00:17:51;97757.41;;;-0.34;68.11
67397;BME280;57728;50.448;18.824;2023-12-07T00:19:52;97813.09;;;0.04;68.24
67397;BME280;57728;50.448;18.824;2023-12-07T00:21:57;97817.44;;;0.05;68.07
67397;BME280;57728;50.448;18.824;2023-12-07T00:23:58;97800.88;;;-0.07;68.23
67397;BME280;57728;50.448;18.824;2023-12-07T00:25:59;97782.66;;;-0.20;68.42
67397;BME280;57728;50.448;18.824;2023-12-07T00:28:01;97806.06;;;-0.06;68.47
67397;BME280;57728;50.448;18.824;2023-12-07T00:30:04;97816.75;;;0.03;68.41
67397;BME280;57728;50.448;18.824;2023-12-07T00:32:05;97806.75;;;-0.04;68.44
67397;BME280;57728;50.448;18.824;2023-12-07T00:34:07;97822.81;;;0.05;68.26
67397;BME280;57728;50.448;18.824;2023-12-07T00:36:10;97812.09;;;0.05;68.35
67397;BME280;57728;50.448;18.824;2023-12-07T00:38:13;97796.38;;;-0.07;68.29
67397;BME280;57728;50.448;18.824;2023-12-07T00:40:15;97774.47;;;-0.19;68.32
67397;BME280;57728;50.448;18.824;2023-12-07T00:42:16;97817.78;;;0.02;68.30
67397;BME280;57728;50.448;18.824;2023-12-07T00:44:18;97811.59;;;0.01;68.38
67397;BME280;57728;50.448;18.824;2023-12-07T00:46:20;97806.06;;;-0.06;68.34
67397;BME280;57728;50.448;18.824;2023-12-07T00:48:21;97826.47;;;0.04;68.63
67397;BME280;57728;50.448;18.824;2023-12-07T00:50:22;97824.50;;;0.06;68.58
67397;BME280;57728;50.448;18.824;2023-12-07T00:52:24;97828.63;;;0.08;68.39
67397;BME280;57728;50.448;18.824;2023-12-07T00:54:25;97843.72;;;0.09;68.65
67397;BME280;57728;50.448;18.824;2023-12-07T00:56:26;97830.31;;;0.09;68.47
67397;BME280;57728;50.448;18.824;2023-12-07T00:58:28;97782.50;;;-0.19;68.42
67397;BME280;57728;50.448;18.824;2023-12-07T01:00:29;97821.47;;;0.01;68.41
67397;BME280;57728;50.448;18.824;2023-12-07T01:02:31;97791.69;;;-0.13;68.58
67397;BME280;57728;50.448;18.824;2023-12-07T01:04:33;97823.16;;;0.02;68.52
67397;BME280;57728;50.448;18.824;2023-12-07T01:06:34;97819.78;;;-0.01;68.44
67397;BME280;57728;50.448;18.824;2023-12-07T01:08:35;97827.81;;;0.08;68.63
67397;BME280;57728;50.448;18.824;2023-12-07T01:10:37;97827.81;;;-0.01;68.65
67397;BME280;57728;50.448;18.824;2023-12-07T01:12:38;97818.44;;;-0.05;68.69
67397;BME280;57728;50.448;18.824;2023-12-07T01:14:39;97782.00;;;-0.30;68.61
67397;BME280;57728;50.448;18.824;2023-12-07T01:16:42;97833.00;;;0.01;68.70
67397;BME280;57728;50.448;18.824;2023-12-07T01:18:44;97826.66;;;0.02;68.67
67397;BME280;57728;50.448;18.824;2023-12-07T01:20:45;97786.38;;;-0.21;68.90
67397;BME280;57728;50.448;18.824;2023-12-07T01:22:47;97838.53;;;0.08;68.82
67397;BME280;57728;50.448;18.824;2023-12-07T01:24:48;97823.16;;;0.02;68.63
67397;BME280;57728;50.448;18.824;2023-12-07T01:26:49;97853.72;;;0.15;68.56
67397;BME280;57728;50.448;18.824;2023-12-07T01:28:51;97852.25;;;0.13;68.53
67397;BME280;57728;50.448;18.824;2023-12-07T01:30:52;97836.53;;;0.02;68.72
67397;BME280;57728;50.448;18.824;2023-12-07T01:32:54;97834.03;;;0.00;68.51
67397;BME280;57728;50.448;18.824;2023-12-07T01:34:57;97826.00;;;-0.08;68.72
67397;BME280;57728;50.448;18.824;2023-12-07T01:36:58;97841.72;;;0.03;68.79
67397;BME280;57728;50.448;18.824;2023-12-07T01:38:59;97846.72;;;0.06;68.82
67397;BME280;57728;50.448;18.824;2023-12-07T01:41:01;97856.28;;;0.09;68.94
67397;BME280;57728;50.448;18.824;2023-12-07T01:43:03;97821.47;;;-0.08;68.89
67397;BME280;57728;50.448;18.824;2023-12-07T01:45:05;97813.63;;;-0.09;68.78
67397;BME280;57728;50.448;18.824;2023-12-07T01:47:08;97856.41;;;0.15;68.86
67397;BME280;57728;50.448;18.824;2023-12-07T01:49:11;97828.69;;;0.00;68.67
67397;BME280;57728;50.448;18.824;2023-12-07T01:51:12;97858.94;;;0.17;68.73
67397;BME280;57728;50.448;18.824;2023-12-07T01:53:15;97804.06;;;-0.20;68.70
67397;BME280;57728;50.448;18.824;2023-12-07T01:55:17;97855.56;;;0.15;68.84
67397;BME280;57728;50.448;18.824;2023-12-07T01:57:20;97832.81;;;-0.06;68.50
67397;BME280;57728;50.448;18.824;2023-12-07T01:59:24;97869.78;;;0.15;68.68
67397;BME280;57728;50.448;18.824;2023-12-07T02:01:25;97864.44;;;0.15;68.58
67397;BME280;57728;50.448;18.824;2023-12-07T02:03:27;97850.06;;;0.08;68.88
67397;BME280;57728;50.448;18.824;2023-12-07T02:05:31;97841.53;;;0.05;68.76
67397;BME280;57728;50.448;18.824;2023-12-07T02:07:34;97804.06;;;-0.20;68.56
67397;BME280;57728;50.448;18.824;2023-12-07T02:09:35;97860.59;;;0.18;68.72
67397;BME280;57728;50.448;18.824;2023-12-07T02:11:39;97853.41;;;0.19;68.87
67397;BME280;57728;50.448;18.824;2023-12-07T02:13:41;97850.56;;;0.12;68.58
67397;BME280;57728;50.448;18.824;2023-12-07T02:15:43;97816.94;;;-0.07;68.53
67397;BME280;57728;50.448;18.824;2023-12-07T02:18:14;97827.16;;;0.06;68.75
67397;BME280;57728;50.448;18.824;2023-12-07T02:20:31;97853.72;;;0.24;68.61
67397;BME280;57728;50.448;18.824;2023-12-07T02:22:43;97821.13;;;0.04;68.65
67397;BME280;57728;50.448;18.824;2023-12-07T02:25:04;97861.75;;;0.24;68.61
67397;BME280;57728;50.448;18.824;2023-12-07T02:27:07;97825.81;;;0.02;68.50
67397;BME280;57728;50.448;18.824;2023-12-07T02:29:08;97844.88;;;0.15;68.45
67397;BME280;57728;50.448;18.824;2023-12-07T02:31:10;97865.59;;;0.21;68.47
67397;BME280;57728;50.448;18.824;2023-12-07T02:33:11;97861.28;;;0.20;68.60
67397;BME280;57728;50.448;18.824;2023-12-07T02:35:14;97817.13;;;-0.09;68.51
67397;BME280;57728;50.448;18.824;2023-12-07T02:37:19;97838.00;;;0.04;68.75
67397;BME280;57728;50.448;18.824;2023-12-07T02:39:24;97864.59;;;0.14;68.56
67397;BME280;57728;50.448;18.824;2023-12-07T02:41:26;97847.72;;;-0.03;68.47
67397;BME280;57728;50.448;18.824;2023-12-07T02:43:29;97853.59;;;0.01;68.77
67397;BME280;57728;50.448;18.824;2023-12-07T02:45:33;97877.00;;;0.07;68.78
67397;BME280;57728;50.448;18.824;2023-12-07T02:47:35;97865.97;;;0.02;68.92
67397;BME280;57728;50.448;18.824;2023-12-07T02:49:37;97873.97;;;0.10;68.66
67397;BME280;57728;50.448;18.824;2023-12-07T02:51:39;97879.66;;;0.07;68.90
67397;BME280;57728;50.448;18.824;2023-12-07T02:53:40;97836.19;;;-0.20;68.86
67397;BME280;57728;50.448;18.824;2023-12-07T02:55:42;97874.00;;;0.02;68.91
67397;BME280;57728;50.448;18.824;2023-12-07T02:57:43;97887.69;;;0.07;68.80
67397;BME280;57728;50.448;18.824;2023-12-07T02:59:44;97851.59;;;-0.14;68.60
67397;BME280;57728;50.448;18.824;2023-12-07T03:01:46;97871.97;;;-0.05;68.61
67397;BME280;57728;50.448;18.824;2023-12-07T03:03:47;97882.34;;;-0.02;68.93
67397;BME280;57728;50.448;18.824;2023-12-07T03:05:48;97860.59;;;-0.15;68.93
67397;BME280;57728;50.448;18.824;2023-12-07T03:07:50;97881.69;;;-0.04;69.02
67397;BME280;57728;50.448;18.824;2023-12-07T03:09:51;97855.09;;;-0.22;68.86
67397;BME280;57728;50.448;18.824;2023-12-07T03:11:53;97884.38;;;-0.04;68.99
67397;BME280;57728;50.448;18.824;2023-12-07T03:13:55;97871.81;;;-0.11;69.07
67397;BME280;57728;50.448;18.824;2023-12-07T03:15:56;97860.94;;;-0.18;69.02
67397;BME280;57728;50.448;18.824;2023-12-07T03:17:57;97871.47;;;-0.16;69.04
67397;BME280;57728;50.448;18.824;2023-12-07T03:19:59;97868.97;;;-0.18;69.00
67397;BME280;57728;50.448;18.824;2023-12-07T03:22:00;97870.97;;;-0.20;69.03
67397;BME280;57728;50.448;18.824;2023-12-07T03:24:01;97786.00;;;-0.76;69.28
67397;BME280;57728;50.448;18.824;2023-12-07T03:26:03;97873.31;;;-0.25;69.12
67397;BME280;57728;50.448;18.824;2023-12-07T03:28:04;97854.41;;;-0.32;69.39
67397;BME280;57728;50.448;18.824;2023-12-07T03:30:06;97868.63;;;-0.23;69.79
67397;BME280;57728;50.448;18.824;2023-12-07T03:32:09;97886.88;;;-0.10;69.65
67397;BME280;57728;50.448;18.824;2023-12-07T03:34:10;97863.28;;;-0.23;69.66
67397;BME280;57728;50.448;18.824;2023-12-07T03:36:13;97891.72;;;-0.06;69.69
67397;BME280;57728;50.448;18.824;2023-12-07T03:38:15;97892.41;;;-0.04;69.58
67397;BME280;57728;50.448;18.824;2023-12-07T03:40:16;97809.94;;;-0.49;69.55
67397;BME280;57728;50.448;18.824;2023-12-07T03:42:18;97874.97;;;-0.16;69.44
67397;BME280;57728;50.448;18.824;2023-12-07T03:44:19;97874.50;;;-0.20;69.36
67397;BME280;57728;50.448;18.824;2023-12-07T03:46:21;97846.22;;;-0.39;69.58
67397;BME280;57728;50.448;18.824;2023-12-07T03:48:23;97834.50;;;-0.38;69.52
67397;BME280;57728;50.448;18.824;2023-12-07T03:50:24;97871.31;;;-0.15;69.42
67397;BME280;57728;50.448;18.824;2023-12-07T03:52:25;97902.59;;;0.01;69.63
67397;BME280;57728;50.448;18.824;2023-12-07T03:54:27;97885.69;;;-0.08;69.60
67397;BME280;57728;50.448;18.824;2023-12-07T03:56:30;97902.75;;;-0.01;69.41
67397;BME280;57728;50.448;18.824;2023-12-07T03:58:32;97898.75;;;-0.05;69.42
67397;BME280;57728;50.448;18.824;2023-12-07T04:00:34;97890.72;;;-0.21;69.41
67397;BME280;57728;50.448;18.824;2023-12-07T04:02:35;97890.84;;;-0.23;69.73
67397;BME280;57728;50.448;18.824;2023-12-07T04:04:36;97856.25;;;-0.41;69.82
67397;BME280;57728;50.448;18.824;2023-12-07T04:06:40;97899.75;;;-0.14;69.83
67397;BME280;57728;50.448;18.824;2023-12-07T04:08:41;97877.97;;;-0.27;69.77
67397;BME280;57728;50.448;18.824;2023-12-07T04:10:42;97902.41;;;-0.06;69.86
67397;BME280;57728;50.448;18.824;2023-12-07T04:12:44;97912.13;;;-0.05;69.79
67397;BME280;57728;50.448;18.824;2023-12-07T04:14:45;97922.19;;;-0.07;69.67
67397;BME280;57728;50.448;18.824;2023-12-07T04:16:46;97901.91;;;-0.18;69.91
67397;BME280;57728;50.448;18.824;2023-12-07T04:18:49;97919.66;;;-0.08;70.01
67397;BME280;57728;50.448;18.824;2023-12-07T04:20:50;97861.25;;;-0.38;70.14
67397;BME280;57728;50.448;18.824;2023-12-07T04:22:51;97847.38;;;-0.41;70.28
67397;BME280;57728;50.448;18.824;2023-12-07T04:24:54;97892.38;;;-0.12;70.19
67397;BME280;57728;50.448;18.824;2023-12-07T04:26:55;97904.94;;;-0.04;70.09
67397;BME280;57728;50.448;18.824;2023-12-07T04:28:56;97876.47;;;-0.22;69.95
67397;BME280;57728;50.448;18.824;2023-12-07T04:30:58;97899.59;;;-0.12;70.02
67397;BME280;57728;50.448;18.824;2023-12-07T04:32:59;97888.53;;;-0.09;70.06
67397;BME280;57728;50.448;18.824;2023-12-07T04:35:00;97918.31;;;0.04;70.03
67397;BME280;57728;50.448;18.824;2023-12-07T04:37:03;97891.56;;;-0.12;69.84
67397;BME280;57728;50.448;18.824;2023-12-07T04:39:04;97924.88;;;0.02;70.03
67397;BME280;57728;50.448;18.824;2023-12-07T04:41:05;97881.34;;;-0.25;70.02
67397;BME280;57728;50.448;18.824;2023-12-07T04:43:08;97920.34;;;0.02;70.39
67397;BME280;57728;50.448;18.824;2023-12-07T04:45:09;97917.47;;;-0.05;70.22
67397;BME280;57728;50.448;18.824;2023-12-07T04:47:10;97922.84;;;-0.05;70.17
67397;BME280;57728;50.448;18.824;2023-12-07T04:49:12;97936.41;;;0.02;70.04
67397;BME280;57728;50.448;18.824;2023-12-07T04:51:14;97871.28;;;-0.40;70.27
67397;BME280;57728;50.448;18.824;2023-12-07T04:53:15;97872.31;;;-0.41;70.13
67397;BME280;57728;50.448;18.824;2023-12-07T04:55:17;97928.00;;;-0.11;70.31
67397;BME280;57728;50.448;18.824;2023-12-07T04:57:18;97947.94;;;0.03;70.27
67397;BME280;57728;50.448;18.824;2023-12-07T04:59:19;97931.53;;;-0.11;70.21
67397;BME280;57728;50.448;18.824;2023-12-07T05:01:21;97932.69;;;-0.13;70.26
67397;BME280;57728;50.448;18.824;2023-12-07T05:03:22;97960.31;;;-0.05;70.39
67397;BME280;57728;50.448;18.824;2023-12-07T05:05:23;97944.22;;;-0.13;70.39
67397;BME280;57728;50.448;18.824;2023-12-07T05:07:26;97958.13;;;-0.09;70.55
67397;BME280;57728;50.448;18.824;2023-12-07T05:09:27;97938.72;;;-0.20;70.64
67397;BME280;57728;50.448;18.824;2023-12-07T05:11:32;97952.59;;;-0.16;70.56
67397;BME280;57728;50.448;18.824;2023-12-07T05:13:35;97954.59;;;-0.18;70.47
67397;BME280;57728;50.448;18.824;2023-12-07T05:15:37;97970.69;;;-0.10;70.66
67397;BME280;57728;50.448;18.824;2023-12-07T05:17:38;97938.19;;;-0.23;70.73
67397;BME280;57728;50.448;18.824;2023-12-07T05:19:40;97941.38;;;-0.28;70.63
67397;BME280;57728;50.448;18.824;2023-12-07T05:21:41;97954.09;;;-0.22;70.56
67397;BME280;57728;50.448;18.824;2023-12-07T05:23:42;97966.31;;;-0.19;70.81
67397;BME280;57728;50.448;18.824;2023-12-07T05:25:44;97946.72;;;-0.28;70.88
67397;BME280;57728;50.448;18.824;2023-12-07T05:27:46;97933.50;;;-0.38;70.81
67397;BME280;57728;50.448;18.824;2023-12-07T05:29:47;97911.72;;;-0.51;70.80
67397;BME280;57728;50.448;18.824;2023-12-07T05:31:49;97936.13;;;-0.46;70.81
67397;BME280;57728;50.448;18.824;2023-12-07T05:33:53;97984.69;;;-0.16;70.93
67397;BME280;57728;50.448;18.824;2023-12-07T05:35:54;97988.38;;;-0.17;71.11
67397;BME280;57728;50.448;18.824;2023-12-07T05:37:56;97989.41;;;-0.18;71.03
67397;BME280;57728;50.448;18.824;2023-12-07T05:39:57;97987.19;;;-0.23;70.95
67397;BME280;57728;50.448;18.824;2023-12-07T05:41:58;97987.50;;;-0.26;71.11
67397;BME280;57728;50.448;18.824;2023-12-07T05:44:00;97973.25;;;-0.43;71.11
67397;BME280;57728;50.448;18.824;2023-12-07T05:46:02;97993.53;;;-0.32;71.22
67397;BME280;57728;50.448;18.824;2023-12-07T05:48:03;97995.38;;;-0.32;71.41
67397;BME280;57728;50.448;18.824;2023-12-07T05:50:06;97949.16;;;-0.59;71.23
67397;BME280;57728;50.448;18.824;2023-12-07T05:52:08;97981.59;;;-0.46;71.51
67397;BME280;57728;50.448;18.824;2023-12-07T05:54:09;97969.22;;;-0.55;71.42
67397;BME280;57728;50.448;18.824;2023-12-07T05:56:11;97988.63;;;-0.45;71.19
67397;BME280;57728;50.448;18.824;2023-12-07T05:58:13;98004.03;;;-0.39;71.36
67397;BME280;57728;50.448;18.824;2023-12-07T06:00:14;98001.34;;;-0.39;71.74
67397;BME280;57728;50.448;18.824;2023-12-07T06:02:17;98010.72;;;-0.35;71.95
67397;BME280;57728;50.448;18.824;2023-12-07T06:04:19;98007.56;;;-0.30;71.88
67397;BME280;57728;50.448;18.824;2023-12-07T06:06:20;98005.41;;;-0.26;71.79
67397;BME280;57728;50.448;18.824;2023-12-07T06:08:23;97998.53;;;-0.29;71.61
67397;BME280;57728;50.448;18.824;2023-12-07T06:10:24;98007.75;;;-0.23;71.64
67397;BME280;57728;50.448;18.824;2023-12-07T06:12:26;98016.47;;;-0.21;71.61
67397;BME280;57728;50.448;18.824;2023-12-07T06:14:28;98019.81;;;-0.19;71.84
67397;BME280;57728;50.448;18.824;2023-12-07T06:16:29;98004.72;;;-0.28;72.02
67397;BME280;57728;50.448;18.824;2023-12-07T06:18:30;98013.13;;;-0.23;71.88
67397;BME280;57728;50.448;18.824;2023-12-07T06:20:32;97979.25;;;-0.49;71.84
67397;BME280;57728;50.448;18.824;2023-12-07T06:22:34;98025.50;;;-0.22;71.86
67397;BME280;57728;50.448;18.824;2023-12-07T06:24:35;97993.66;;;-0.42;71.59
67397;BME280;57728;50.448;18.824;2023-12-07T06:26:37;98019.63;;;-0.26;71.99
67397;BME280;57728;50.448;18.824;2023-12-07T06:28:38;98038.38;;;-0.18;71.85
67397;BME280;57728;50.448;18.824;2023-12-07T06:30:39;98031.88;;;-0.15;72.08
67397;BME280;57728;50.448;18.824;2023-12-07T06:32:42;98028.03;;;-0.12;72.14
67397;BME280;57728;50.448;18.824;2023-12-07T06:34:43;98027.88;;;-0.11;72.05
67397;BME280;57728;50.448;18.824;2023-12-07T06:36:44;98008.78;;;-0.16;72.18
67397;BME280;57728;50.448;18.824;2023-12-07T06:38:46;98029.91;;;0.04;72.07
67397;BME280;57728;50.448;18.824;2023-12-07T06:40:48;97991.56;;;-0.13;72.01
67397;BME280;57728;50.448;18.824;2023-12-07T06:42:49;98019.38;;;0.02;71.84
67397;BME280;57728;50.448;18.824;2023-12-07T06:44:51;97990.91;;;-0.15;71.42
67397;BME280;57728;50.448;18.824;2023-12-07T06:46:54;98039.97;;;0.10;71.56
67397;BME280;57728;50.448;18.824;2023-12-07T06:48:55;98030.94;;;0.11;71.65
67397;BME280;57728;50.448;18.824;2023-12-07T06:50:57;98039.66;;;0.13;71.85
67397;BME280;57728;50.448;18.824;2023-12-07T06:52:59;98018.84;;;-0.02;71.65
67397;BME280;57728;50.448;18.824;2023-12-07T06:55:00;98033.44;;;0.12;71.62
67397;BME280;57728;50.448;18.824;2023-12-07T06:57:02;98037.66;;;0.23;71.74
67397;BME280;57728;50.448;18.824;2023-12-07T06:59:04;98041.69;;;0.27;71.67
67397;BME280;57728;50.448;18.824;2023-12-07T07:01:05;98015.19;;;0.08;71.53
67397;BME280;57728;50.448;18.824;2023-12-07T07:03:07;98034.97;;;0.23;71.58
67397;BME280;57728;50.448;18.824;2023-12-07T07:05:08;98059.59;;;0.35;71.42
67397;BME280;57728;50.448;18.824;2023-12-07T07:07:12;98040.34;;;0.31;71.52
67397;BME280;57728;50.448;18.824;2023-12-07T07:09:14;98026.25;;;0.21;71.44
67397;BME280;57728;50.448;18.824;2023-12-07T07:11:16;98037.16;;;0.28;71.24
67397;BME280;57728;50.448;18.824;2023-12-07T07:13:17;98060.78;;;0.41;71.12
67397;BME280;57728;50.448;18.824;2023-12-07T07:15:21;98035.97;;;0.22;71.15
67397;BME280;57728;50.448;18.824;2023-12-07T07:17:26;98050.91;;;0.33;71.29
67397;BME280;57728;50.448;18.824;2023-12-07T07:19:27;98055.09;;;0.36;71.26
67397;BME280;57728;50.448;18.824;2023-12-07T07:21:29;98030.13;;;0.27;71.19
67397;BME280;57728;50.448;18.824;2023-12-07T07:23:31;98061.28;;;0.44;71.04
67397;BME280;57728;50.448;18.824;2023-12-07T07:25:32;98051.38;;;0.37;71.01
67397;BME280;57728;50.448;18.824;2023-12-07T07:27:34;98065.66;;;0.45;71.07
67397;BME280;57728;50.448;18.824;2023-12-07T07:29:35;98031.97;;;0.26;71.17
67397;BME280;57728;50.448;18.824;2023-12-07T07:31:36;98065.16;;;0.50;71.08
67397;BME280;57728;50.448;18.824;2023-12-07T07:33:41;98038.34;;;0.42;70.97
67397;BME280;57728;50.448;18.824;2023-12-07T07:35:42;98066.81;;;0.59;71.12
67397;BME280;57728;50.448;18.824;2023-12-07T07:37:43;98041.38;;;0.47;70.88
67397;BME280;57728;50.448;18.824;2023-12-07T07:39:45;98040.03;;;0.51;70.94
67397;BME280;57728;50.448;18.824;2023-12-07T07:41:47;98069.00;;;0.72;70.67
67397;BME280;57728;50.448;18.824;2023-12-07T07:43:49;98063.50;;;0.74;70.69
67397;BME280;57728;50.448;18.824;2023-12-07T07:45:52;98062.97;;;0.70;70.63
67397;BME280;57728;50.448;18.824;2023-12-07T07:47:53;98056.44;;;0.73;70.40
67397;BME280;57728;50.448;18.824;2023-12-07T07:49:54;98074.06;;;0.83;70.36
67397;BME280;57728;50.448;18.824;2023-12-07T07:51:56;98052.44;;;0.77;70.39
67397;BME280;57728;50.448;18.824;2023-12-07T07:53:59;98075.38;;;0.88;70.29
67397;BME280;57728;50.448;18.824;2023-12-07T07:56:00;98070.84;;;0.88;70.11
67397;BME280;57728;50.448;18.824;2023-12-07T07:58:02;98088.63;;;0.89;70.01
67397;BME280;57728;50.448;18.824;2023-12-07T08:00:04;98008.22;;;0.40;69.95
67397;BME280;57728;50.448;18.824;2023-12-07T08:02:07;98082.41;;;0.89;69.92
67397;BME280;57728;50.448;18.824;2023-12-07T08:04:09;98065.31;;;0.81;70.03
67397;BME280;57728;50.448;18.824;2023-12-07T08:06:11;98083.75;;;0.93;69.91
67397;BME280;57728;50.448;18.824;2023-12-07T08:08:12;98074.88;;;0.92;69.66
67397;BME280;57728;50.448;18.824;2023-12-07T08:10:14;98061.66;;;0.82;69.74
67397;BME280;57728;50.448;18.824;2023-12-07T08:12:15;98091.63;;;0.94;69.71
67397;BME280;57728;50.448;18.824;2023-12-07T08:14:16;98077.22;;;0.95;69.75
67397;BME280;57728;50.448;18.824;2023-12-07T08:16:22;98074.88;;;0.92;69.68
67397;BME280;57728;50.448;18.824;2023-12-07T08:18:23;98047.72;;;0.79;69.63
67397;BME280;57728;50.448;18.824;2023-12-07T08:20:24;98059.44;;;0.94;69.87
67397;BME280;57728;50.448;18.824;2023-12-07T08:22:26;98078.03;;;1.12;69.72
67397;BME280;57728;50.448;18.824;2023-12-07T08:24:28;98081.22;;;1.16;69.57
67397;BME280;57728;50.448;18.824;2023-12-07T08:26:29;98085.22;;;1.20;69.46
67397;BME280;57728;50.448;18.824;2023-12-07T08:28:31;98027.97;;;0.88;69.07
67397;BME280;57728;50.448;18.824;2023-12-07T08:30:33;98061.78;;;1.06;69.17
67397;BME280;57728;50.448;18.824;2023-12-07T08:32:34;98060.09;;;1.05;68.94
67397;BME280;57728;50.448;18.824;2023-12-07T08:34:37;98098.97;;;1.25;68.92
67397;BME280;57728;50.448;18.824;2023-12-07T08:36:38;98086.25;;;1.19;69.09
67397;BME280;57728;50.448;18.824;2023-12-07T08:38:39;98104.34;;;1.25;68.97
67397;BME280;57728;50.448;18.824;2023-12-07T08:40:41;98098.31;;;1.15;69.00
67397;BME280;57728;50.448;18.824;2023-12-07T08:42:46;98095.66;;;1.07;68.70
67397;BME280;57728;50.448;18.824;2023-12-07T08:44:50;98120.13;;;1.12;68.55
67397;BME280;57728;50.448;18.824;2023-12-07T08:46:52;98060.13;;;0.72;68.91
67397;BME280;57728;50.448;18.824;2023-12-07T08:48:54;98118.44;;;0.94;68.74
67397;BME280;57728;50.448;18.824;2023-12-07T08:50:55;98100.84;;;0.75;68.95
67397;BME280;57728;50.448;18.824;2023-12-07T08:52:57;98096.97;;;0.61;69.11
67397;BME280;57728;50.448;18.824;2023-12-07T08:54:58;98130.81;;;0.79;69.36
67397;BME280;57728;50.448;18.824;2023-12-07T08:56:59;98106.38;;;0.65;69.53
67397;BME280;57728;50.448;18.824;2023-12-07T08:59:02;98126.16;;;0.81;69.61
67397;BME280;57728;50.448;18.824;2023-12-07T09:01:03;98113.72;;;0.72;69.72
67397;BME280;57728;50.448;18.824;2023-12-07T09:03:04;98129.13;;;0.86;69.74
67397;BME280;57728;50.448;18.824;2023-12-07T09:05:06;98113.41;;;0.83;69.94
67397;BME280;57728;50.448;18.824;2023-12-07T09:07:08;98120.63;;;0.91;69.70
67397;BME280;57728;50.448;18.824;2023-12-07T09:09:10;98087.44;;;0.75;69.44
67397;BME280;57728;50.448;18.824;2023-12-07T09:11:13;98121.81;;;0.96;69.56
67397;BME280;57728;50.448;18.824;2023-12-07T09:13:14;98124.16;;;1.08;69.75
67397;BME280;57728;50.448;18.824;2023-12-07T09:15:16;98113.91;;;1.03;69.66
67397;BME280;57728;50.448;18.824;2023-12-07T09:17:18;98133.84;;;1.17;69.36
67397;BME280;57728;50.448;18.824;2023-12-07T09:19:19;98129.34;;;1.17;69.33
67397;BME280;57728;50.448;18.824;2023-12-07T09:21:20;98106.03;;;1.10;69.33
67397;BME280;57728;50.448;18.824;2023-12-07T09:23:22;98121.59;;;1.23;69.63
67397;BME280;57728;50.448;18.824;2023-12-07T09:25:23;98101.34;;;1.12;69.42
67397;BME280;57728;50.448;18.824;2023-12-07T09:27:28;98106.84;;;1.27;69.59
67397;BME280;57728;50.448;18.824;2023-12-07T09:29:33;98079.72;;;1.13;69.19
67397;BME280;57728;50.448;18.824;2023-12-07T09:31:34;98102.66;;;1.32;69.09
67397;BME280;57728;50.448;18.824;2023-12-07T09:33:35;98096.94;;;1.27;68.97
67397;BME280;57728;50.448;18.824;2023-12-07T09:35:39;98122.78;;;1.36;68.81
67397;BME280;57728;50.448;18.824;2023-12-07T09:37:40;98111.88;;;1.38;69.05
67397;BME280;57728;50.448;18.824;2023-12-07T09:39:42;98100.31;;;1.29;68.82
67397;BME280;57728;50.448;18.824;2023-12-07T09:41:44;98134.47;;;1.52;69.07
67397;BME280;57728;50.448;18.824;2023-12-07T09:43:48;98122.06;;;1.59;69.26
67397;BME280;57728;50.448;18.824;2023-12-07T09:45:53;98098.78;;;1.51;68.98
67397;BME280;57728;50.448;18.824;2023-12-07T09:47:59;98125.19;;;1.79;69.02
67397;BME280;57728;50.448;18.824;2023-12-07T09:50:02;98123.47;;;1.86;68.54
67397;BME280;57728;50.448;18.824;2023-12-07T09:52:06;98118.63;;;1.90;68.71
67397;BME280;57728;50.448;18.824;2023-12-07T09:54:10;98128.81;;;2.03;68.56
67397;BME280;57728;50.448;18.824;2023-12-07T09:56:12;98119.91;;;2.02;68.39
67397;BME280;57728;50.448;18.824;2023-12-07T09:58:14;98129.59;;;2.12;67.85
67397;BME280;57728;50.448;18.824;2023-12-07T10:00:16;98126.09;;;2.11;67.85
67397;BME280;57728;50.448;18.824;2023-12-07T10:02:18;98128.59;;;2.13;67.78
67397;BME280;57728;50.448;18.824;2023-12-07T10:04:22;98080.34;;;1.88;67.52
67397;BME280;57728;50.448;18.824;2023-12-07T10:06:42;98111.88;;;2.02;67.50
67397;BME280;57728;50.448;18.824;2023-12-07T10:08:48;98117.69;;;2.06;67.44
67397;BME280;57728;50.448;18.824;2023-12-07T10:11:01;98097.59;;;1.94;67.34
67397;BME280;57728;50.448;18.824;2023-12-07T10:13:04;98116.72;;;1.99;67.56
67397;BME280;57728;50.448;18.824;2023-12-07T10:15:17;98093.28;;;1.93;67.27
67397;BME280;57728;50.448;18.824;2023-12-07T10:17:20;98108.47;;;2.09;67.34
67397;BME280;57728;50.448;18.824;2023-12-07T10:19:23;98101.13;;;2.02;67.41
67397;BME280;57728;50.448;18.824;2023-12-07T10:21:32;98114.16;;;2.14;67.40
67397;BME280;57728;50.448;18.824;2023-12-07T10:23:34;98087.50;;;2.04;67.41
67397;BME280;57728;50.448;18.824;2023-12-07T10:25:41;98109.41;;;2.24;67.35
67397;BME280;57728;50.448;18.824;2023-12-07T10:27:43;98093.66;;;2.21;67.11
67397;BME280;57728;50.448;18.824;2023-12-07T10:29:45;98112.69;;;2.34;67.26
67397;BME280;57728;50.448;18.824;2023-12-07T10:31:47;98102.00;;;2.26;66.71
67397;BME280;57728;50.448;18.824;2023-12-07T10:33:49;98113.88;;;2.32;66.85
67397;BME280;57728;50.448;18.824;2023-12-07T10:35:51;98112.22;;;2.31;66.84
67397;BME280;57728;50.448;18.824;2023-12-07T10:37:53;98110.56;;;2.30;66.69
67397;BME280;57728;50.448;18.824;2023-12-07T10:39:54;98095.38;;;2.14;66.65
67397;BME280;57728;50.448;18.824;2023-12-07T10:42:02;98105.38;;;2.20;66.74
67397;BME280;57728;50.448;18.824;2023-12-07T10:44:09;98101.88;;;2.19;66.55